Time;durP1;ratioP1;P1;durP2;ratioP2;P2;SDS_P1;SDS_P2;PMS_P1;PMS_P2;Temp;Humidity;BMP_temperature;BMP_pressure;BME280_temperature;BME280_humidity;BME280_pressure;Samples;Min_cycle;Max_cycle;Signal;HPM_P1;HPM_P2
2022/12/20 10:54:01;;;;;;;13.35;9.73;;;;;;;5.37;72.83;103646.25;1778225;80;21593;-59
2022/12/20 10:56:30;;;;;;;14.38;9.53;;;;;;;5.74;71.15;103644.48;1767094;80;21069;-59
2022/12/20 10:59:20;;;;;;;11.20;8.80;;;;;;;5.94;70.67;103637.62;1754598;80;21104;-59
2022/12/20 11:01:47;;;;;;;11.65;8.58;;;;;;;6.14;70.04;103632.47;1673895;84;21053;-59
2022/12/20 11:04:34;;;;;;;10.35;8.58;;;;;;;6.37;69.04;103627.84;1660859;85;21062;-60
2022/12/20 11:07:03;;;;;;;11.20;7.95;;;;;;;6.56;68.21;103627.78;1625353;86;21596;-59
2022/12/20 11:09:35;;;;;;;11.35;8.53;;;;;;;6.76;67.07;103621.23;1671262;83;21144;-59
2022/12/20 11:12:13;;;;;;;10.18;8.60;;;;;;;6.90;66.21;103614.88;1664627;84;21021;-60
2022/12/20 11:14:43;;;;;;;10.05;7.95;;;;;;;7.02;65.29;103610.17;1672182;83;21085;-57
2022/12/20 11:17:26;;;;;;;9.45;7.83;;;;;;;7.09;64.42;103605.70;1652990;84;21104;-57
2022/12/20 11:20:25;;;;;;;12.35;8.78;;;;;;;7.15;63.91;103605.93;1661040;83;21133;-59
2022/12/20 11:23:00;;;;;;;10.72;8.75;;;;;;;7.17;63.49;103604.28;1661641;84;21562;-59
2022/12/20 11:25:49;;;;;;;9.95;8.30;;;;;;;7.18;63.21;103599.55;1672114;84;21102;-59
2022/12/20 11:28:48;;;;;;;11.08;8.25;;;;;;;7.21;62.95;103602.27;1658239;84;21097;-59
2022/12/20 11:31:40;;;;;;;11.30;7.40;;;;;;;7.22;62.60;103596.25;1662513;84;21050;-59
2022/12/20 11:34:44;;;;;;;10.55;8.50;;;;;;;7.22;62.52;103592.36;1666449;83;21054;-59
2022/12/20 11:37:20;;;;;;;11.50;9.05;;;;;;;7.22;62.35;103583.30;1640707;86;21065;-59
2022/12/20 11:40:10;;;;;;;11.12;8.40;;;;;;;7.24;62.35;103586.83;1692348;83;21026;-60
2022/12/20 11:43:12;;;;;;;10.90;8.40;;;;;;;7.23;62.23;103582.05;1683595;83;21571;-59
2022/12/20 11:46:05;;;;;;;14.43;8.00;;;;;;;7.19;61.95;103565.94;1669088;84;21563;-60
2022/12/20 11:49:26;;;;;;;11.05;8.30;;;;;;;7.16;62.19;103575.31;1677259;83;21211;-59
2022/12/20 11:52:01;;;;;;;12.68;8.05;;;;;;;7.15;62.13;103567.09;1674408;83;21054;-59
2022/12/20 11:54:39;;;;;;;11.73;8.95;;;;;;;7.14;61.92;103566.60;1609045;87;21089;-59
2022/12/20 11:57:22;;;;;;;9.38;7.40;;;;;;;7.16;61.66;103554.19;1616143;87;21111;-59
2022/12/20 11:59:56;;;;;;;9.85;7.15;;;;;;;7.17;61.49;103548.61;1513781;92;22017;-59
2022/12/20 12:02:52;;;;;;;10.70;7.50;;;;;;;7.16;61.16;103544.23;1490881;95;21161;-59
2022/12/20 12:05:49;;;;;;;8.45;6.95;;;;;;;7.16;61.30;103544.23;1494302;95;21133;-59
2022/12/20 12:08:19;;;;;;;10.78;8.03;;;;;;;7.17;61.25;103538.25;1417145;99;21114;-59
2022/12/20 12:11:03;;;;;;;9.63;7.97;;;;;;;7.20;61.17;103533.16;1408812;99;21138;-59
2022/12/20 12:13:34;;;;;;;10.78;7.58;;;;;;;7.24;61.00;103536.33;1395796;99;21603;-59
2022/12/20 12:16:09;;;;;;;10.40;8.40;;;;;;;7.24;60.84;103531.15;1407232;100;21111;-59
2022/12/20 12:18:37;;;;;;;11.90;8.85;;;;;;;7.26;60.85;103528.20;1364783;104;22390;-59
2022/12/20 12:21:23;;;;;;;12.45;9.40;;;;;;;7.25;60.91;103525.16;1357184;104;21170;-59
2022/12/20 12:24:29;;;;;;;10.30;8.13;;;;;;;7.25;60.69;103518.25;1344427;105;21142;-59
2022/12/20 12:26:58;;;;;;;10.50;8.40;;;;;;;7.27;60.68;103514.44;1356567;104;21186;-59
2022/12/20 12:29:26;;;;;;;9.83;8.25;;;;;;;7.30;60.54;103510.64;1340480;105;21754;-59
2022/12/20 12:32:01;;;;;;;11.95;9.45;;;;;;;7.33;60.39;103505.19;1351248;105;21140;-59
2022/12/20 12:35:00;;;;;;;11.83;8.45;;;;;;;7.37;60.33;103503.57;1342480;105;21687;-59
2022/12/20 12:37:45;;;;;;;21.87;12.07;;;;;;;7.38;60.23;103494.95;1335630;105;21117;-60
2022/12/20 12:40:19;;;;;;;27.07;18.25;;;;;;;7.39;60.25;103491.15;1329405;106;21097;-59
2022/12/20 12:43:28;;;;;;;12.18;9.15;;;;;;;7.42;59.90;103489.05;1329108;107;21220;-59
2022/12/20 12:45:57;;;;;;;10.45;8.18;;;;;;;7.45;59.96;103481.40;1378935;101;21247;-59
2022/12/20 12:48:58;;;;;;;10.90;8.75;;;;;;;7.52;59.73;103474.72;1406707;101;21086;-60
2022/12/20 12:51:35;;;;;;;10.40;8.90;;;;;;;7.57;59.30;103472.74;1420858;98;21141;-59
2022/12/20 12:54:24;;;;;;;8.85;7.67;;;;;;;7.60;58.52;103472.86;1440677;99;21636;-59
2022/12/20 12:56:51;;;;;;;10.18;7.42;;;;;;;7.59;58.21;103471.08;1437657;97;21094;-59
2022/12/20 12:59:35;;;;;;;9.93;7.62;;;;;;;7.55;57.95;103465.74;1495139;93;21073;-59
2022/12/20 13:02:16;;;;;;;9.53;7.25;;;;;;;7.51;57.82;103468.66;1545859;92;21071;-59
2022/12/20 13:05:11;;;;;;;9.70;7.70;;;;;;;7.45;57.85;103467.16;1520807;92;21060;-59
2022/12/20 13:07:43;;;;;;;9.23;7.22;;;;;;;7.39;57.96;103465.65;1551134;92;21079;-59
2022/12/20 13:10:20;;;;;;;8.90;7.10;;;;;;;7.35;58.15;103467.27;1616142;88;21838;-60
2022/12/20 13:12:54;;;;;;;9.53;7.47;;;;;;;7.36;58.13;103460.34;1642928;86;21103;-59
2022/12/20 13:15:26;;;;;;;9.23;7.87;;;;;;;7.39;58.16;103457.88;1656387;86;21060;-59
2022/12/20 13:17:56;;;;;;;10.50;7.62;;;;;;;7.39;58.04;103456.58;1634058;86;21045;-59
2022/12/20 13:20:33;;;;;;;9.85;7.87;;;;;;;7.39;57.96;103455.29;1574681;90;21098;-59
2022/12/20 13:23:16;;;;;;;11.25;8.33;;;;;;;7.36;57.63;103453.87;1572984;90;21118;-60
2022/12/20 13:25:47;;;;;;;9.63;7.78;;;;;;;7.30;57.37;103454.96;1580014;90;21219;-59
2022/12/20 13:28:28;;;;;;;10.68;8.20;;;;;;;7.23;57.13;103448.69;1573709;90;21077;-60
2022/12/20 13:31:06;;;;;;;11.43;7.92;;;;;;;7.16;57.10;103449.72;1558283;91;21191;-59
2022/12/20 13:33:49;;;;;;;12.07;8.38;;;;;;;7.11;57.14;103448.70;1616159;86;21156;-59
2022/12/20 13:36:34;;;;;;;11.63;8.05;;;;;;;7.05;56.98;103444.57;1620918;86;21006;-59
2022/12/20 13:39:25;;;;;;;10.75;8.45;;;;;;;7.05;56.90;103447.16;1647457;86;21595;-59
2022/12/20 13:42:08;;;;;;;19.85;9.85;;;;;;;7.02;56.97;103444.48;1627155;86;21173;-59
2022/12/20 13:44:45;;;;;;;20.62;13.93;;;;;;;6.98;56.99;103440.91;1563788;90;21067;-59
2022/12/20 13:47:30;;;;;;;24.05;16.20;;;;;;;6.94;56.93;103432.57;1565191;89;21519;-59
2022/12/20 13:50:00;;;;;;;17.60;12.05;;;;;;;6.90;57.03;103428.52;1557516;90;21154;-60
2022/12/20 13:52:30;;;;;;;25.27;12.35;;;;;;;6.85;56.97;103432.63;1564755;89;21086;-59
2022/12/20 13:55:00;;;;;;;14.38;9.43;;;;;;;6.79;57.02;103425.55;1564909;90;21112;-60
2022/12/20 13:57:40;;;;;;;16.82;8.63;;;;;;;6.74;57.08;103427.51;1568494;89;21614;-59
2022/12/20 14:00:18;;;;;;;9.28;8.18;;;;;;;6.72;56.93;103417.52;1494940;95;21583;-59
2022/12/20 14:02:45;;;;;;;9.75;8.00;;;;;;;6.68;57.03;103417.80;1439961;99;21597;-59
2022/12/20 14:05:25;;;;;;;11.48;9.20;;;;;;;6.65;57.01;103418.11;1438868;98;21134;-58
2022/12/20 14:08:03;;;;;;;9.78;8.28;;;;;;;6.59;57.08;103409.28;1430605;99;21731;-59
2022/12/20 14:10:31;;;;;;;8.85;7.70;;;;;;;6.52;57.08;103411.59;1383285;102;21219;-60
2022/12/20 14:12:58;;;;;;;9.85;8.08;;;;;;;6.42;57.26;103406.51;1379821;102;21165;-60
2022/12/20 14:15:34;;;;;;;9.88;8.75;;;;;;;6.33;57.41;103406.16;1378196;103;22545;-59
2022/12/20 14:18:20;;;;;;;10.32;8.28;;;;;;;6.29;57.57;103402.98;1384716;102;21137;-59
2022/12/20 14:20:52;;;;;;;10.75;7.17;;;;;;;6.26;57.78;103389.95;1367236;103;21173;-59
2022/12/20 14:23:23;;;;;;;14.43;12.88;;;;;;;6.27;57.56;103394.29;1350901;103;21671;-59
2022/12/20 14:26:00;;;;;;;14.98;12.70;;;;;;;6.28;57.26;103387.02;1405474;101;21585;-59
2022/12/20 14:28:45;;;;;;;12.30;9.85;;;;;;;6.26;56.95;103382.20;1381253;103;21631;-60
2022/12/20 14:31:40;;;;;;;10.72;8.05;;;;;;;6.24;56.60;103381.27;1381465;102;21708;-59
2022/12/20 14:34:18;;;;;;;7.25;6.30;;;;;;;6.21;56.29;103378.95;1380420;103;21197;-59
2022/12/20 14:36:48;;;;;;;9.23;7.22;;;;;;;6.13;56.12;103379.97;1405911;100;21696;-59
2022/12/20 14:39:25;;;;;;;13.18;9.80;;;;;;;6.12;55.81;103379.48;1373699;103;21218;-59
2022/12/20 14:42:09;;;;;;;26.52;18.32;;;;;;;6.06;55.65;103367.62;1334634;105;21268;-59
2022/12/20 14:44:36;;;;;;;28.85;18.60;;;;;;;6.03;55.51;103370.50;1354156;104;21622;-58
2022/12/20 14:47:17;;;;;;;34.45;22.20;;;;;;;6.03;55.30;103369.21;1362988;103;21205;-59
2022/12/20 14:49:59;;;;;;;35.03;23.67;;;;;;;5.99;55.15;103359.17;1332213;106;21231;-59
2022/12/20 20:22:55;;;;;;;11.43;5.03;;;;;;;4.20;75.73;102991.66;1783956;80;21148;-57
2022/12/20 20:25:24;;;;;;;6.75;3.85;;;;;;;4.55;74.18;102991.33;1770610;80;21066;-58
2022/12/20 20:27:51;;;;;;;6.92;3.90;;;;;;;4.74;73.67;102993.76;1784820;80;21094;-58
2022/12/20 20:30:18;;;;;;;6.03;4.55;;;;;;;4.92;73.23;102990.56;1766899;80;21093;-59
2022/12/20 20:32:45;;;;;;;5.03;3.77;;;;;;;5.14;72.14;102997.80;1752720;80;21038;-59
2022/12/20 20:35:13;;;;;;;6.62;4.25;;;;;;;5.33;70.81;102998.92;1752690;80;21058;-59
2022/12/20 20:37:41;;;;;;;7.10;3.83;;;;;;;5.51;69.46;102990.52;1753811;80;21082;-59
2022/12/20 20:40:09;;;;;;;4.78;3.42;;;;;;;5.67;68.17;102991.50;1752542;80;21051;-59
2022/12/20 20:42:35;;;;;;;3.17;2.85;;;;;;;5.80;67.03;102987.22;1725546;82;21546;-59
2022/12/20 20:45:03;;;;;;;4.97;2.75;;;;;;;5.94;65.64;102971.78;1755591;80;21083;-59
2022/12/20 20:47:30;;;;;;;3.80;2.67;;;;;;;6.07;64.37;102975.64;1760709;80;21477;-59
2022/12/20 20:49:57;;;;;;;6.10;3.47;;;;;;;6.17;63.24;102969.52;1712387;81;21026;-59
2022/12/20 20:52:25;;;;;;;5.28;3.17;;;;;;;6.28;62.26;102968.16;1757225;80;21001;-59
2022/12/20 20:54:52;;;;;;;5.75;3.60;;;;;;;6.34;61.69;102972.22;1770646;80;20995;-58
2022/12/20 20:57:18;;;;;;;5.58;3.92;;;;;;;6.42;61.24;102964.28;1762079;80;21018;-58
2022/12/20 20:59:45;;;;;;;7.70;3.75;;;;;;;6.46;60.90;102966.13;1761456;80;21042;-59
2022/12/20 21:02:14;;;;;;;5.78;3.87;;;;;;;6.49;60.74;102967.48;1763606;80;21053;-59
2022/12/20 21:04:43;;;;;;;6.83;4.10;;;;;;;6.51;60.72;102959.80;1735873;80;21042;-59
2022/12/20 21:07:09;;;;;;;5.10;3.10;;;;;;;6.53;60.70;102954.26;1752748;80;21571;-59
2022/12/20 21:09:36;;;;;;;4.75;3.27;;;;;;;6.56;60.57;102947.86;1749254;80;21047;-58
2022/12/20 21:12:04;;;;;;;5.83;2.90;;;;;;;6.59;60.27;102941.06;1743442;80;21065;-58
2022/12/20 21:14:30;;;;;;;4.55;2.98;;;;;;;6.64;59.90;102935.14;1746744;80;21049;-58
2022/12/20 21:16:57;;;;;;;4.58;3.10;;;;;;;6.64;59.39;102931.26;1760684;80;21034;-58
2022/12/20 21:19:24;;;;;;;4.08;2.80;;;;;;;6.63;58.98;102927.82;1751664;80;21081;-58
2022/12/20 21:21:51;;;;;;;4.90;3.25;;;;;;;6.63;58.65;102925.64;1757280;80;21037;-58
2022/12/20 21:24:18;;;;;;;3.72;2.35;;;;;;;6.61;58.39;102929.89;1760943;80;21593;-58
2022/12/20 21:26:46;;;;;;;4.03;2.90;;;;;;;6.61;58.26;102926.02;1756494;80;21035;-58
2022/12/20 21:29:13;;;;;;;6.03;2.62;;;;;;;6.56;58.22;102916.41;1767045;80;21038;-59
2022/12/20 21:31:40;;;;;;;5.10;3.20;;;;;;;6.56;58.25;102920.30;1750200;80;21034;-58
2022/12/20 21:34:07;;;;;;;7.78;6.05;;;;;;;6.45;58.41;102912.62;1745427;80;21509;-59
2022/12/20 21:36:34;;;;;;;7.62;5.30;;;;;;;6.45;58.37;102910.48;1779278;80;21533;-58
2022/12/20 21:39:02;;;;;;;5.78;3.90;;;;;;;6.61;57.98;102911.79;1761646;80;21038;-59
2022/12/20 21:41:29;;;;;;;4.65;3.67;;;;;;;6.65;57.66;102904.58;1759573;80;21623;-59
2022/12/20 21:43:58;;;;;;;3.75;2.90;;;;;;;6.68;57.33;102898.21;1760967;80;21035;-59
2022/12/20 21:46:25;;;;;;;4.15;2.72;;;;;;;6.65;57.21;102887.35;1690594;83;21039;-59
2022/12/20 21:48:53;;;;;;;3.33;2.55;;;;;;;6.65;57.13;102892.94;1691385;83;21045;-58
2022/12/20 21:51:22;;;;;;;3.70;2.42;;;;;;;6.51;57.38;102882.21;1714179;83;21039;-59
2022/12/20 21:53:52;;;;;;;3.70;2.55;;;;;;;6.52;57.34;102881.36;1694118;84;21086;-59
2022/12/20 21:56:19;;;;;;;3.22;2.40;;;;;;;6.43;57.65;102875.91;1649542;84;21100;-59
2022/12/20 21:58:46;;;;;;;4.67;2.70;;;;;;;6.44;57.61;102883.73;1659437;84;21106;-59
2022/12/20 22:01:15;;;;;;;3.67;2.55;;;;;;;6.47;57.53;102881.22;1671074;85;21541;-59
2022/12/20 22:03:43;;;;;;;4.33;2.12;;;;;;;6.49;57.39;102874.38;1654006;84;21062;-59
2022/12/20 22:06:09;;;;;;;3.67;2.50;;;;;;;6.49;57.27;102869.21;1651028;84;21514;-59
2022/12/20 22:08:37;;;;;;;5.15;2.37;;;;;;;6.50;57.15;102868.39;1673748;84;21040;-59
2022/12/20 22:11:06;;;;;;;4.47;2.42;;;;;;;6.50;57.09;102868.39;1650282;84;21045;-59
2022/12/20 22:13:33;;;;;;;3.87;2.45;;;;;;;6.59;56.77;102867.34;1620466;86;21614;-58
2022/12/20 22:16:09;;;;;;;7.20;3.22;;;;;;;6.62;56.66;102872.14;1618246;88;21047;-58
2022/12/20 22:18:36;;;;;;;8.68;3.87;;;;;;;6.59;56.72;102867.78;1586023;89;21197;-59
2022/12/20 22:21:09;;;;;;;7.00;4.12;;;;;;;6.58;56.97;102869.48;1581870;89;21625;-59
2022/12/20 22:23:36;;;;;;;6.00;4.00;;;;;;;6.58;57.14;102864.31;1554896;90;21152;-59
2022/12/20 22:26:04;;;;;;;8.45;4.08;;;;;;;6.59;57.20;102862.16;1540920;91;21133;-58
2022/12/20 22:28:31;;;;;;;5.92;3.70;;;;;;;6.62;57.20;102864.37;1551879;90;21111;-59
2022/12/20 22:30:57;;;;;;;3.27;2.75;;;;;;;6.62;57.24;102856.62;1564212;91;21046;-59
2022/12/20 22:33:25;;;;;;;4.58;3.35;;;;;;;6.63;57.18;102855.39;1567446;91;21571;-59
2022/12/20 22:35:52;;;;;;;3.92;3.00;;;;;;;6.61;57.25;102852.30;1571072;91;21083;-59
2022/12/20 22:38:18;;;;;;;4.03;2.85;;;;;;;6.58;57.23;102848.80;1584616;88;21050;-59
2022/12/20 22:40:47;;;;;;;5.40;2.72;;;;;;;6.55;57.26;102848.69;1576431;88;21230;-59
2022/12/20 22:43:13;;;;;;;4.75;3.55;;;;;;;6.64;57.16;102849.77;1609585;87;21159;-58
2022/12/20 22:45:40;;;;;;;3.85;2.77;;;;;;;6.75;56.77;102850.95;1622164;87;21073;-59
2022/12/20 22:48:07;;;;;;;3.10;2.77;;;;;;;6.79;56.73;102852.38;1611536;86;21070;-59
